Time;durP1;ratioP1;P1;durP2;ratioP2;P2;SDS_P1;SDS_P2;PMS_P1;PMS_P2;Temp;Humidity;BMP_temperature;BMP_pressure;BME280_temperature;BME280_humidity;BME280_pressure;Samples;Min_cycle;Max_cycle;Signal;HPM_P1;HPM_P2
2023/02/06 00:02:11;;;;;;;32.17;17.30;;;2.20;99.90;;;;;;4899826;29;20092;-78
2023/02/06 00:04:38;;;;;;;36.05;19.55;;;2.20;99.90;;;;;;4899047;29;20045;-77
2023/02/06 00:07:05;;;;;;;36.47;21.33;;;2.20;99.90;;;;;;4899846;29;20037;-78
2023/02/06 00:09:32;;;;;;;36.75;17.88;;;2.20;99.90;;;;;;4899212;29;20049;-77
2023/02/06 00:11:58;;;;;;;37.00;19.00;;;2.30;99.90;;;;;;4900009;29;20119;-77
2023/02/06 00:14:25;;;;;;;37.72;21.50;;;2.30;99.90;;;;;;4899749;29;20044;-78
2023/02/06 00:16:53;;;;;;;32.08;20.33;;;2.30;99.90;;;;;;4899128;29;20080;-77
2023/02/06 00:19:19;;;;;;;30.45;16.17;;;2.40;99.90;;;;;;4899897;29;20048;-77
2023/02/06 00:21:46;;;;;;;29.42;17.83;;;2.40;99.90;;;;;;4900109;29;20119;-77
2023/02/06 00:24:12;;;;;;;36.10;19.95;;;2.40;99.90;;;;;;4898955;29;20048;-77
2023/02/06 00:26:39;;;;;;;32.17;19.73;;;2.40;99.90;;;;;;4900013;29;20053;-77
2023/02/06 00:29:06;;;;;;;36.72;20.55;;;2.40;99.90;;;;;;4899664;29;20055;-77
2023/02/06 00:31:33;;;;;;;35.28;21.00;;;2.40;99.90;;;;;;4914681;29;20084;-77
2023/02/06 00:34:00;;;;;;;35.00;18.92;;;2.30;99.90;;;;;;4899665;29;20093;-77
2023/02/06 00:36:27;;;;;;;31.65;20.00;;;2.30;99.90;;;;;;4899080;29;20507;-77
2023/02/06 00:38:54;;;;;;;37.25;20.10;;;2.30;99.90;;;;;;4899779;29;20049;-77
2023/02/06 00:41:20;;;;;;;34.88;21.13;;;2.20;99.90;;;;;;4900003;29;20056;-77
2023/02/06 00:43:49;;;;;;;42.75;21.05;;;2.20;99.90;;;;;;4898744;29;20037;-77
2023/02/06 00:46:16;;;;;;;44.60;22.55;;;2.20;99.90;;;;;;4900033;29;20076;-77
2023/02/06 00:48:43;;;;;;;40.83;20.48;;;2.20;99.90;;;;;;4899650;29;20045;-77
2023/02/06 00:51:09;;;;;;;48.22;22.83;;;2.20;99.90;;;;;;4913683;29;20127;-78
2023/02/06 00:53:36;;;;;;;42.25;21.33;;;2.20;99.90;;;;;;4899415;29;20123;-76
2023/02/06 00:56:03;;;;;;;41.33;20.80;;;2.20;99.90;;;;;;4913432;29;20056;-77
2023/02/06 00:58:30;;;;;;;39.35;21.73;;;2.20;99.90;;;;;;4899232;29;20040;-77
2023/02/06 01:00:56;;;;;;;42.83;20.48;;;2.30;99.90;;;;;;4899381;29;20045;-77
2023/02/06 01:03:23;;;;;;;42.20;19.85;;;2.30;99.90;;;;;;4881925;29;20520;-77
2023/02/06 01:05:50;;;;;;;34.10;19.85;;;2.30;99.90;;;;;;4899434;29;20108;-78
2023/02/06 01:08:17;;;;;;;40.28;19.70;;;2.30;99.90;;;;;;4899262;29;20475;-77
2023/02/06 01:10:43;;;;;;;35.65;19.20;;;2.40;99.90;;;;;;4897658;29;20052;-77
2023/02/06 01:13:10;;;;;;;31.33;17.63;;;2.30;99.90;;;;;;4898121;29;20052;-76
2023/02/06 01:15:39;;;;;;;33.60;18.02;;;2.40;99.90;;;;;;4913575;29;20488;-77
2023/02/06 01:18:06;;;;;;;32.95;19.05;;;2.40;99.90;;;;;;4899623;29;20075;-77
2023/02/06 01:20:33;;;;;;;43.92;20.70;;;2.40;99.90;;;;;;4914548;29;20372;-75
2023/02/06 01:23:02;;;;;;;38.30;20.20;;;2.40;99.90;;;;;;4897191;29;20052;-76
2023/02/06 01:25:29;;;;;;;35.08;18.38;;;2.40;99.90;;;;;;4899180;29;20337;-76
2023/02/06 01:27:58;;;;;;;35.83;19.45;;;2.50;99.90;;;;;;4914264;29;20411;-76
2023/02/06 01:30:24;;;;;;;35.28;17.85;;;2.40;99.90;;;;;;4898472;29;20051;-77
2023/02/06 01:32:51;;;;;;;30.35;17.63;;;2.40;99.90;;;;;;4915309;29;20048;-75
2023/02/06 01:35:18;;;;;;;29.38;17.30;;;2.50;99.90;;;;;;4901684;29;20518;-76
2023/02/06 01:37:47;;;;;;;37.95;16.92;;;2.50;99.90;;;;;;4901670;29;20381;-76
2023/02/06 01:40:13;;;;;;;37.27;18.67;;;2.50;99.90;;;;;;4886354;29;20053;-76
2023/02/06 01:42:40;;;;;;;28.25;16.30;;;2.40;99.90;;;;;;4900772;29;20044;-77
2023/02/06 01:45:07;;;;;;;31.85;16.58;;;2.40;99.90;;;;;;4902733;29;20428;-77
2023/02/06 01:47:34;;;;;;;30.08;16.77;;;2.40;99.90;;;;;;4901487;29;20132;-76
2023/02/06 01:50:04;;;;;;;38.80;18.70;;;2.40;99.90;;;;;;4901788;29;20067;-76
2023/02/06 01:52:31;;;;;;;31.80;16.35;;;2.50;99.90;;;;;;4902140;29;20048;-76
2023/02/06 01:54:57;;;;;;;29.90;15.88;;;2.50;99.90;;;;;;4902429;29;20048;-76
2023/02/06 01:57:24;;;;;;;26.90;15.30;;;2.50;99.90;;;;;;4901650;29;20048;-75
2023/02/06 01:59:51;;;;;;;31.00;17.45;;;2.50;99.90;;;;;;4886410;29;20442;-76
2023/02/06 02:02:18;;;;;;;31.83;15.80;;;2.40;99.90;;;;;;4900567;29;20446;-76
2023/02/06 02:04:45;;;;;;;31.92;16.40;;;2.40;99.90;;;;;;4902486;29;20051;-75
2023/02/06 02:07:12;;;;;;;29.77;16.30;;;2.40;99.90;;;;;;4902291;29;20064;-76
2023/02/06 02:09:40;;;;;;;36.30;16.75;;;2.40;99.90;;;;;;4900485;29;20072;-76
2023/02/06 02:12:07;;;;;;;23.98;13.32;;;2.40;99.90;;;;;;4902337;29;20048;-76
2023/02/06 02:14:33;;;;;;;24.45;13.70;;;2.40;99.90;;;;;;4902557;29;20539;-76
2023/02/06 02:17:00;;;;;;;24.60;13.25;;;2.40;99.90;;;;;;4901308;29;20036;-76
2023/02/06 02:19:27;;;;;;;23.70;13.10;;;2.40;99.90;;;;;;4902688;29;20391;-75
2023/02/06 02:21:53;;;;;;;26.80;13.02;;;2.40;99.90;;;;;;4901180;29;20329;-76
2023/02/06 02:24:20;;;;;;;28.35;12.10;;;2.50;99.90;;;;;;4901217;29;20070;-77
2023/02/06 02:26:47;;;;;;;26.10;14.82;;;2.50;99.90;;;;;;4902140;29;20045;-76
2023/02/06 02:29:16;;;;;;;24.50;12.40;;;2.60;99.90;;;;;;4901407;29;20048;-76
2023/02/06 02:31:43;;;;;;;32.38;13.48;;;2.60;99.90;;;;;;4902013;29;20059;-76
2023/02/06 02:34:09;;;;;;;19.20;12.40;;;2.50;99.90;;;;;;4901665;29;20128;-76
2023/02/06 02:36:37;;;;;;;23.58;14.02;;;2.50;99.90;;;;;;4901125;29;20430;-77
2023/02/06 02:39:04;;;;;;;23.58;13.20;;;2.50;99.90;;;;;;4900626;29;20466;-75
2023/02/06 02:41:32;;;;;;;28.58;14.65;;;2.50;99.90;;;;;;4900926;29;20076;-77
2023/02/06 02:43:59;;;;;;;26.38;13.98;;;2.50;99.90;;;;;;4899786;29;20041;-77
2023/02/06 02:46:26;;;;;;;26.98;13.48;;;2.50;99.90;;;;;;4901861;29;20113;-77
2023/02/06 02:48:52;;;;;;;26.30;13.95;;;2.60;99.90;;;;;;4900837;29;20058;-76
2023/02/06 02:51:20;;;;;;;28.73;13.30;;;2.60;99.90;;;;;;4915327;29;20048;-76
2023/02/06 02:53:46;;;;;;;30.88;16.48;;;2.50;99.90;;;;;;4900709;29;20056;-76
2023/02/06 02:56:14;;;;;;;29.08;13.45;;;2.50;99.90;;;;;;4899774;29;20056;-76
2023/02/06 02:58:41;;;;;;;29.45;12.48;;;2.50;99.90;;;;;;4884813;29;20135;-75
2023/02/06 03:01:08;;;;;;;22.08;14.27;;;2.50;99.90;;;;;;4901240;29;20052;-76
2023/02/06 03:03:34;;;;;;;25.98;13.75;;;2.50;99.90;;;;;;4900460;29;20044;-75
2023/02/06 03:06:02;;;;;;;23.02;13.07;;;2.50;99.90;;;;;;4901102;29;20119;-76
2023/02/06 03:08:29;;;;;;;25.33;13.38;;;2.40;99.90;;;;;;4900925;29;20037;-76
2023/02/06 03:10:56;;;;;;;26.35;13.35;;;2.50;99.90;;;;;;4915311;29;20060;-77
2023/02/06 03:13:23;;;;;;;23.85;13.27;;;2.50;99.90;;;;;;4901107;29;20059;-77
2023/02/06 03:15:49;;;;;;;25.70;13.10;;;2.50;99.90;;;;;;4900489;29;20049;-76
2023/02/06 03:18:16;;;;;;;23.98;12.27;;;2.50;99.90;;;;;;4901276;29;20375;-77
2023/02/06 03:20:43;;;;;;;23.27;12.50;;;2.50;99.90;;;;;;4901286;29;20413;-77
2023/02/06 03:23:10;;;;;;;22.77;11.90;;;2.50;99.90;;;;;;4900197;29;20132;-77
2023/02/06 03:25:36;;;;;;;29.73;13.48;;;2.50;99.90;;;;;;4901240;29;20048;-76
2023/02/06 03:28:03;;;;;;;20.75;11.45;;;2.50;99.90;;;;;;4915734;29;20045;-76
2023/02/06 03:30:30;;;;;;;23.58;12.48;;;2.50;99.90;;;;;;4900227;29;20068;-76
2023/02/06 03:32:57;;;;;;;22.17;11.63;;;2.50;99.90;;;;;;4915350;29;20055;-76
2023/02/06 03:35:24;;;;;;;28.10;14.60;;;2.60;99.90;;;;;;4900734;29;20131;-76
2023/02/06 03:37:50;;;;;;;22.27;12.93;;;2.50;99.90;;;;;;4899749;29;20044;-76
2023/02/06 03:40:17;;;;;;;27.38;12.38;;;2.60;99.90;;;;;;4900389;29;20119;-76
2023/02/06 03:42:44;;;;;;;24.80;12.85;;;2.60;99.90;;;;;;4899566;29;20045;-76
2023/02/06 03:45:11;;;;;;;21.17;12.80;;;2.50;99.90;;;;;;4900353;29;20049;-76
2023/02/06 03:47:40;;;;;;;23.60;11.60;;;2.50;99.90;;;;;;4900583;29;20037;-76
2023/02/06 03:50:07;;;;;;;26.17;13.77;;;2.60;99.90;;;;;;4899651;29;20405;-76
2023/02/06 03:52:33;;;;;;;28.42;13.95;;;2.60;99.90;;;;;;4900436;29;20371;-77
2023/02/06 03:55:01;;;;;;;18.58;12.48;;;2.60;99.90;;;;;;4900457;29;20424;-76
2023/02/06 03:57:29;;;;;;;23.90;11.95;;;2.60;99.90;;;;;;4898878;29;20044;-76
2023/02/06 03:59:56;;;;;;;22.63;11.48;;;2.60;99.90;;;;;;4900553;29;20052;-75
2023/02/06 04:02:22;;;;;;;24.67;13.25;;;2.60;99.90;;;;;;4898980;29;20472;-76
2023/02/06 04:04:49;;;;;;;19.58;10.57;;;2.60;99.90;;;;;;4900339;29;20068;-75
2023/02/06 04:07:16;;;;;;;19.30;10.60;;;2.60;99.90;;;;;;4899969;29;20127;-75
2023/02/06 04:09:43;;;;;;;25.00;11.98;;;2.60;99.90;;;;;;4899435;29;20143;-76
2023/02/06 04:12:09;;;;;;;22.08;13.07;;;2.60;99.90;;;;;;4899949;29;20416;-75
2023/02/06 04:14:38;;;;;;;16.80;10.93;;;2.50;99.90;;;;;;4899933;29;20120;-77
2023/02/06 04:17:06;;;;;;;23.33;10.80;;;2.50;99.90;;;;;;4899040;29;20501;-75
2023/02/06 04:19:33;;;;;;;23.77;12.75;;;2.50;99.90;;;;;;4899679;29;20052;-75
2023/02/06 04:22:00;;;;;;;19.67;12.07;;;2.50;99.90;;;;;;4899541;29;20136;-76
2023/02/06 04:24:26;;;;;;;20.13;12.10;;;2.50;99.90;;;;;;4899096;29;20431;-76
2023/02/06 04:26:56;;;;;;;24.02;12.57;;;2.50;99.90;;;;;;4899871;29;20079;-76
2023/02/06 04:29:23;;;;;;;19.27;10.55;;;2.50;99.90;;;;;;4899277;29;20131;-76
2023/02/06 04:31:50;;;;;;;20.38;11.80;;;2.50;99.90;;;;;;4899598;29;20053;-76
2023/02/06 04:34:16;;;;;;;24.48;12.60;;;2.50;99.90;;;;;;4898658;29;20040;-76
2023/02/06 04:36:43;;;;;;;24.30;12.65;;;2.50;99.90;;;;;;4899206;29;20067;-75
2023/02/06 04:39:10;;;;;;;21.73;11.73;;;2.60;99.90;;;;;;4898398;29;20596;-76
2023/02/06 04:41:36;;;;;;;24.30;12.15;;;2.60;99.90;;;;;;4898848;29;20112;-76
2023/02/06 04:44:03;;;;;;;24.17;13.50;;;2.60;99.90;;;;;;4898725;29;20353;-76
2023/02/06 04:46:30;;;;;;;23.52;12.07;;;2.50;99.90;;;;;;4900347;29;20083;-76
2023/02/06 04:48:57;;;;;;;18.60;11.70;;;2.50;99.90;;;;;;4898775;29;20139;-77
2023/02/06 04:51:23;;;;;;;22.63;11.55;;;2.50;99.90;;;;;;4900144;29;20073;-77
2023/02/06 04:53:50;;;;;;;23.63;10.45;;;2.60;99.90;;;;;;4898331;29;20151;-76
2023/02/06 04:56:18;;;;;;;25.70;12.27;;;2.60;99.90;;;;;;4898934;29;20100;-76
2023/02/06 04:58:45;;;;;;;23.17;12.45;;;2.70;99.90;;;;;;4900146;29;20045;-76
2023/02/06 05:01:11;;;;;;;20.65;12.27;;;2.70;99.90;;;;;;4899691;29;20051;-76
2023/02/06 05:03:38;;;;;;;24.83;11.68;;;2.70;99.90;;;;;;4898299;29;20068;-75
2023/02/06 05:06:05;;;;;;;19.60;12.07;;;2.70;99.90;;;;;;4899401;29;20371;-76
2023/02/06 05:08:31;;;;;;;21.70;11.50;;;2.60;99.90;;;;;;4902290;29;20048;-76
2023/02/06 05:10:58;;;;;;;21.08;11.13;;;2.50;99.90;;;;;;4902439;29;20041;-76
2023/02/06 05:13:25;;;;;;;24.25;11.45;;;2.40;99.90;;;;;;4903140;29;20041;-76
2023/02/06 05:15:51;;;;;;;21.10;11.25;;;2.30;99.90;;;;;;4900991;29;20053;-76
2023/02/06 05:18:18;;;;;;;16.50;10.40;;;2.30;99.90;;;;;;4886515;29;20056;-76
2023/02/06 05:20:45;;;;;;;23.73;10.55;;;2.30;99.90;;;;;;4902742;29;20049;-76
2023/02/06 05:23:12;;;;;;;18.52;10.02;;;2.30;99.90;;;;;;4916500;29;20484;-75
2023/02/06 05:25:38;;;;;;;19.27;10.27;;;2.30;99.90;;;;;;4903169;29;20040;-76
2023/02/06 05:28:09;;;;;;;17.47;10.03;;;2.30;99.90;;;;;;4902759;29;20048;-76
2023/02/06 05:30:36;;;;;;;18.42;10.20;;;2.30;99.90;;;;;;4901867;29;20453;-76
2023/02/06 05:33:03;;;;;;;23.17;10.70;;;2.30;99.90;;;;;;4902418;29;20044;-75
2023/02/06 05:35:29;;;;;;;19.13;10.25;;;2.30;99.90;;;;;;4902662;29;20123;-76
2023/02/06 05:37:57;;;;;;;15.40;9.35;;;2.30;99.90;;;;;;4901872;29;20431;-76
2023/02/06 05:40:24;;;;;;;17.40;10.32;;;2.30;99.90;;;;;;4901755;29;20552;-75
2023/02/06 05:42:51;;;;;;;18.48;10.13;;;2.30;99.90;;;;;;4901398;29;20127;-75
2023/02/06 05:45:17;;;;;;;21.17;10.07;;;2.30;99.90;;;;;;4901786;29;20040;-76
2023/02/06 05:47:44;;;;;;;18.85;11.55;;;2.30;99.90;;;;;;4902480;29;20104;-76
2023/02/06 05:50:11;;;;;;;19.50;9.80;;;2.30;99.90;;;;;;4901741;29;20096;-76
2023/02/06 05:52:38;;;;;;;20.15;11.23;;;2.30;99.90;;;;;;4902196;29;20079;-75
2023/02/06 05:55:04;;;;;;;22.17;10.95;;;2.20;99.90;;;;;;4901388;29;20045;-76
2023/02/06 05:57:31;;;;;;;24.05;10.88;;;2.20;99.90;;;;;;4901475;29;20129;-76
2023/02/06 05:59:58;;;;;;;20.90;11.07;;;2.20;99.90;;;;;;4902151;29;20480;-76
2023/02/06 06:02:26;;;;;;;19.40;10.80;;;2.20;99.90;;;;;;4901077;29;20059;-77
2023/02/06 06:04:52;;;;;;;22.45;11.40;;;2.10;99.90;;;;;;4902500;29;20051;-76
2023/02/06 06:07:22;;;;;;;20.90;12.48;;;2.10;99.90;;;;;;4902494;29;20051;-76
2023/02/06 06:09:49;;;;;;;22.48;10.02;;;2.10;99.90;;;;;;4901354;29;20048;-76
2023/02/06 06:12:18;;;;;;;23.55;11.45;;;2.20;99.90;;;;;;4901821;29;20040;-76
2023/02/06 06:14:44;;;;;;;21.42;10.35;;;2.20;99.90;;;;;;4902004;29;20053;-76
2023/02/06 06:17:11;;;;;;;25.92;11.07;;;2.20;99.90;;;;;;4901532;29;20460;-75
2023/02/06 06:19:38;;;;;;;20.45;10.63;;;2.10;99.90;;;;;;4901251;29;20050;-76
2023/02/06 06:22:05;;;;;;;20.73;10.65;;;2.10;99.90;;;;;;4901815;29;20456;-76
2023/02/06 06:24:31;;;;;;;20.33;11.30;;;2.10;99.90;;;;;;4900751;29;20048;-76
2023/02/06 06:26:58;;;;;;;24.23;9.88;;;2.10;99.90;;;;;;4901790;29;20045;-75
2023/02/06 06:29:25;;;;;;;20.10;11.35;;;2.10;99.90;;;;;;4901273;29;20119;-76
2023/02/06 06:31:52;;;;;;;22.70;12.02;;;2.20;99.90;;;;;;4900690;29;20111;-76
2023/02/06 06:34:19;;;;;;;22.27;9.50;;;2.20;99.90;;;;;;4901961;29;20404;-76
2023/02/06 06:36:46;;;;;;;18.05;9.48;;;2.10;99.90;;;;;;4915573;29;20058;-76
2023/02/06 06:39:12;;;;;;;19.60;9.82;;;2.10;99.90;;;;;;4901617;29;20144;-76
2023/02/06 06:41:39;;;;;;;17.40;9.55;;;2.10;99.90;;;;;;4901337;29;20055;-76
2023/02/06 06:44:06;;;;;;;22.92;10.23;;;2.10;99.90;;;;;;4915507;29;20139;-76
2023/02/06 06:46:33;;;;;;;22.45;11.43;;;2.20;99.90;;;;;;4900443;29;20443;-76
2023/02/06 06:49:00;;;;;;;20.55;11.52;;;2.20;99.90;;;;;;4884324;29;20392;-77
2023/02/06 06:51:28;;;;;;;21.50;8.77;;;2.10;99.90;;;;;;4901184;29;20567;-76
2023/02/06 06:53:55;;;;;;;22.00;10.80;;;2.00;99.90;;;;;;4901900;29;20471;-76
2023/02/06 06:56:22;;;;;;;19.23;10.88;;;2.00;99.90;;;;;;4899723;29;20048;-76
2023/02/06 06:58:49;;;;;;;21.40;10.50;;;2.10;99.90;;;;;;4901406;29;20414;-76
2023/02/06 07:01:16;;;;;;;19.90;9.73;;;2.10;99.90;;;;;;4901265;29;20476;-76
2023/02/06 07:03:44;;;;;;;20.58;11.20;;;2.00;99.90;;;;;;4900277;29;20488;-76
2023/02/06 07:06:10;;;;;;;20.67;9.15;;;2.10;99.90;;;;;;4901271;29;20432;-76
2023/02/06 07:08:40;;;;;;;20.60;9.75;;;2.10;99.90;;;;;;4901156;29;20119;-75
2023/02/06 07:11:07;;;;;;;18.45;9.27;;;2.10;99.90;;;;;;4899533;29;20401;-76
2023/02/06 07:13:34;;;;;;;20.48;10.25;;;2.10;99.90;;;;;;4915866;29;20041;-75
2023/02/06 07:16:04;;;;;;;21.65;9.13;;;2.00;99.90;;;;;;4900517;29;20120;-75
2023/02/06 07:18:31;;;;;;;25.50;11.57;;;1.90;99.90;;;;;;4901245;29;20040;-76
2023/02/06 07:20:58;;;;;;;18.88;10.73;;;1.90;99.90;;;;;;4901264;29;20432;-76
2023/02/06 07:23:24;;;;;;;38.17;12.38;;;1.90;99.90;;;;;;4900310;29;20487;-76
2023/02/06 07:25:51;;;;;;;18.40;10.52;;;1.70;99.90;;;;;;4901148;29;20049;-76
2023/02/06 07:28:18;;;;;;;22.08;10.63;;;1.70;99.90;;;;;;4917044;29;20051;-76
2023/02/06 07:30:45;;;;;;;24.13;10.80;;;1.60;99.90;;;;;;4899045;29;20044;-76
2023/02/06 07:33:11;;;;;;;17.98;10.23;;;1.60;99.90;;;;;;4918676;29;20055;-76
2023/02/06 07:35:48;;;;;;;20.42;10.77;;;1.50;99.90;;;;;;4905568;29;20380;-76
2023/02/06 07:38:16;;;;;;;20.75;10.68;;;1.40;99.90;;;;;;4897630;29;20048;-76
2023/02/06 07:40:43;;;;;;;29.45;11.68;;;1.40;99.90;;;;;;4899644;29;20112;-76
2023/02/06 07:43:11;;;;;;;19.38;11.52;;;1.40;99.90;;;;;;4899208;29;20115;-76
2023/02/06 07:45:38;;;;;;;23.02;11.68;;;1.40;99.90;;;;;;4899832;29;20427;-77
2023/02/06 07:48:05;;;;;;;23.63;11.63;;;1.40;99.90;;;;;;4892724;29;20036;-76
2023/02/06 07:50:32;;;;;;;23.33;12.10;;;1.40;99.90;;;;;;4902939;29;20114;-76
2023/02/06 07:52:58;;;;;;;22.13;10.70;;;1.40;99.90;;;;;;4918509;29;20059;-75
2023/02/06 07:55:25;;;;;;;21.92;10.68;;;1.30;99.90;;;;;;4919201;29;20059;-75
2023/02/06 07:57:52;;;;;;;23.48;12.35;;;1.30;99.90;;;;;;4918430;29;20131;-75
2023/02/06 08:00:19;;;;;;;19.50;10.77;;;1.20;99.90;;;;;;4921108;29;20052;-75
2023/02/06 08:02:45;;;;;;;17.58;10.20;;;1.30;99.90;;;;;;4915730;29;20048;-75
2023/02/06 08:05:14;;;;;;;19.20;9.57;;;1.20;99.90;;;;;;4903117;29;20507;-74
2023/02/06 08:07:41;;;;;;;19.33;10.30;;;1.10;99.90;;;;;;4907825;29;20069;-75
2023/02/06 08:10:08;;;;;;;14.50;8.57;;;1.10;99.90;;;;;;4905795;29;20482;-76
2023/02/06 08:12:35;;;;;;;21.52;10.65;;;1.10;99.90;;;;;;4910878;29;20431;-75
2023/02/06 08:15:01;;;;;;;14.82;10.60;;;1.10;99.90;;;;;;4918719;29;20058;-77
2023/02/06 08:17:28;;;;;;;19.33;9.90;;;1.10;99.90;;;;;;4909648;29;20138;-77
2023/02/06 08:19:55;;;;;;;17.85;8.45;;;1.10;99.90;;;;;;4908299;29;20519;-76
2023/02/06 08:22:21;;;;;;;21.73;9.77;;;1.10;99.90;;;;;;4922632;29;20118;-76
2023/02/06 08:24:48;;;;;;;25.30;9.95;;;1.10;99.90;;;;;;4911801;29;20032;-77
2023/02/06 08:27:16;;;;;;;20.48;11.70;;;1.10;99.90;;;;;;4918613;29;20040;-76
2023/02/06 08:29:43;;;;;;;25.67;10.45;;;1.20;99.90;;;;;;4918256;29;20412;-76
2023/02/06 08:32:10;;;;;;;17.98;9.15;;;1.20;99.90;;;;;;4917600;29;20050;-76
2023/02/06 08:34:37;;;;;;;18.73;10.32;;;1.30;99.90;;;;;;4918820;29;20538;-77
2023/02/06 08:37:03;;;;;;;20.48;9.60;;;1.30;99.90;;;;;;4917767;29;20044;-76
2023/02/06 08:39:30;;;;;;;19.40;9.60;;;1.40;99.90;;;;;;4918234;29;20147;-77
2023/02/06 08:41:57;;;;;;;21.27;9.73;;;1.50;99.90;;;;;;4917573;29;20530;-77
2023/02/06 08:44:23;;;;;;;19.75;9.68;;;1.60;99.90;;;;;;4917895;29;20120;-77
2023/02/06 08:46:51;;;;;;;19.20;9.23;;;1.80;99.90;;;;;;4918501;29;20044;-77
2023/02/06 08:49:30;;;;;;;21.85;9.55;;;1.90;99.90;;;;;;4917237;29;20373;-77
2023/02/06 08:51:56;;;;;;;19.20;8.98;;;2.10;99.90;;;;;;4932794;29;20126;-77
2023/02/06 08:54:23;;;;;;;19.85;9.25;;;2.20;99.90;;;;;;4918177;29;20048;-78
2023/02/06 08:56:50;;;;;;;18.67;9.15;;;2.20;99.90;;;;;;4916662;29;20455;-76
2023/02/06 08:59:17;;;;;;;28.27;11.13;;;2.40;99.90;;;;;;4906614;29;20383;-77
2023/02/06 09:01:48;;;;;;;20.67;11.80;;;2.40;99.90;;;;;;4897053;29;20068;-77
2023/02/06 09:04:15;;;;;;;22.90;12.10;;;2.50;99.90;;;;;;4909696;29;20507;-78
2023/02/06 09:06:42;;;;;;;32.92;13.10;;;2.60;99.90;;;;;;4899515;29;20519;-79
2023/02/06 09:09:09;;;;;;;30.58;13.43;;;2.80;99.90;;;;;;4898249;29;20083;-77
2023/02/06 09:11:36;;;;;;;28.88;13.40;;;3.00;99.90;;;;;;4891774;29;20040;-78
2023/02/06 09:14:03;;;;;;;31.90;12.18;;;3.20;99.90;;;;;;4898845;29;20041;-78
2023/02/06 09:16:32;;;;;;;26.75;11.68;;;3.30;99.90;;;;;;4897507;29;20487;-77
2023/02/06 09:19:01;;;;;;;24.95;12.45;;;3.40;99.90;;;;;;4898061;29;20468;-78
2023/02/06 09:21:28;;;;;;;;;;;3.60;99.90;;;;;;4898895;29;20052;-78
2023/02/06 09:23:55;;;;;;;23.35;10.73;;;3.70;99.90;;;;;;4897846;29;19953;-78
2023/02/06 09:26:22;;;;;;;22.40;10.52;;;3.90;99.90;;;;;;4898839;29;20032;-78
2023/02/06 09:28:48;;;;;;;28.08;14.55;;;4.00;99.90;;;;;;4883053;29;20387;-77
2023/02/06 09:31:15;;;;;;;26.63;12.48;;;4.10;99.90;;;;;;4897253;29;20381;-78
2023/02/06 09:33:42;;;;;;;26.25;10.57;;;4.20;99.90;;;;;;4906762;29;20072;-78
2023/02/06 09:36:09;;;;;;;24.08;9.85;;;4.30;99.90;;;;;;4906228;29;20072;-77
2023/02/06 09:38:36;;;;;;;23.63;10.00;;;4.40;99.90;;;;;;4902209;29;20567;-77
2023/02/06 09:41:02;;;;;;;20.50;8.20;;;4.40;99.90;;;;;;4899274;29;20444;-77
2023/02/06 09:43:29;;;;;;;18.40;9.02;;;4.50;99.90;;;;;;4898113;29;20123;-78
2023/02/06 09:45:56;;;;;;;25.60;9.43;;;4.60;99.90;;;;;;4899036;29;20438;-77
2023/02/06 09:48:23;;;;;;;24.15;8.18;;;4.70;99.90;;;;;;4899451;29;20047;-77
2023/02/06 09:50:49;;;;;;;19.77;8.43;;;4.80;99.90;;;;;;4898206;29;20064;-77
2023/02/06 09:53:16;;;;;;;19.15;7.90;;;4.90;99.90;;;;;;4898831;29;20036;-77
2023/02/06 09:55:43;;;;;;;24.60;8.45;;;5.00;99.90;;;;;;4904045;29;20471;-77
2023/02/06 09:58:12;;;;;;;16.45;7.50;;;5.10;99.90;;;;;;4936020;29;20127;-77
2023/02/06 10:00:40;;;;;;;16.53;8.03;;;5.20;99.90;;;;;;4921130;29;20451;-77
2023/02/06 10:03:07;;;;;;;18.40;7.32;;;5.40;99.90;;;;;;4919825;29;20761;-77
2023/02/06 10:05:35;;;;;;;24.10;7.95;;;5.70;99.90;;;;;;4921903;29;20055;-78
2023/02/06 10:08:02;;;;;;;19.33;7.32;;;5.90;99.90;;;;;;4921019;29;20059;-78
2023/02/06 10:10:29;;;;;;;18.45;6.43;;;6.10;99.90;;;;;;4920258;29;20054;-78
2023/02/06 10:12:55;;;;;;;17.45;7.70;;;6.40;99.90;;;;;;4935721;29;20080;-81
2023/02/06 10:15:23;;;;;;;17.40;7.53;;;6.60;99.90;;;;;;4924178;29;20119;-80
2023/02/06 10:17:49;;;;;;;19.17;8.25;;;6.90;99.90;;;;;;4901095;29;20045;-81
2023/02/06 10:20:16;;;;;;;26.85;9.25;;;7.10;99.90;;;;;;4902126;29;20468;-78
2023/02/06 10:22:43;;;;;;;23.20;9.80;;;7.40;99.90;;;;;;4900652;29;20095;-78
2023/02/06 10:25:10;;;;;;;24.33;10.55;;;7.60;99.90;;;;;;4904726;29;20048;-77
2023/02/06 10:30:22;;;;;;;17.05;7.55;;;7.90;99.90;;;;;;4911803;29;20048;-77
2023/02/06 10:32:52;;;;;;;16.70;7.20;;;8.20;99.90;;;;;;4894145;29;20051;-78
2023/02/06 10:35:18;;;;;;;16.92;6.50;;;8.40;99.90;;;;;;4914384;29;20467;-79
2023/02/06 10:37:46;;;;;;;15.60;6.40;;;8.70;99.90;;;;;;4910237;29;20063;-79
2023/02/06 10:40:13;;;;;;;20.73;7.13;;;8.90;99.90;;;;;;4910147;29;20059;-79
2023/02/06 10:42:40;;;;;;;16.30;6.45;;;9.20;99.90;;;;;;4919046;29;20043;-79
2023/02/06 10:45:06;;;;;;;15.70;7.07;;;9.40;99.90;;;;;;4920399;29;20037;-79
2023/02/06 10:50:31;;;;;;;14.63;5.82;;;9.70;99.90;;;;;;4900531;29;20487;-78
2023/02/06 10:52:58;;;;;;;17.17;7.43;;;10.00;99.90;;;;;;4882822;29;20443;-80
2023/02/06 10:55:25;;;;;;;12.77;5.28;;;10.30;99.90;;;;;;4899566;29;20077;-78
2023/02/06 10:57:52;;;;;;;14.93;4.82;;;10.50;99.90;;;;;;4900219;29;20064;-79
2023/02/06 11:00:18;;;;;;;13.05;5.07;;;10.60;99.90;;;;;;4925706;29;20426;-78
2023/02/06 11:02:47;;;;;;;9.82;3.03;;;10.80;99.90;;;;;;4933704;29;20463;-78
2023/02/06 11:05:27;;;;;;;14.38;5.30;;;11.00;99.90;;;;;;4932787;29;20112;-78
2023/02/06 11:07:56;;;;;;;15.10;3.65;;;11.10;99.90;;;;;;4919771;29;20040;-79
2023/02/06 11:10:22;;;;;;;11.60;3.22;;;11.30;99.90;;;;;;4919299;29;20452;-80
2023/02/06 11:12:50;;;;;;;9.68;3.40;;;11.30;99.90;;;;;;4934314;29;20160;-78
2023/02/06 11:15:16;;;;;;;11.27;3.38;;;11.60;99.90;;;;;;4911656;29;20040;-78
2023/02/06 11:17:43;;;;;;;12.65;3.40;;;11.80;99.90;;;;;;4904515;29;20053;-78
2023/02/06 11:20:10;;;;;;;11.85;3.20;;;11.80;99.90;;;;;;4912672;29;20123;-79
2023/02/06 11:22:37;;;;;;;8.07;3.70;;;12.00;99.90;;;;;;4902023;29;20072;-79
2023/02/06 11:25:18;;;;;;;9.45;2.92;;;12.00;99.90;;;;;;4898925;29;20105;-79
2023/02/06 11:27:45;;;;;;;10.30;3.15;;;12.00;99.90;;;;;;4899402;29;20137;-79
2023/02/06 11:30:14;;;;;;;10.77;3.13;;;11.90;99.90;;;;;;4898606;29;20475;-79
2023/02/06 11:32:42;;;;;;;10.57;3.53;;;12.10;99.90;;;;;;4899774;29;20040;-79
2023/02/06 11:35:24;;;;;;;8.98;2.67;;;12.40;99.90;;;;;;4912266;29;20052;-79
2023/02/06 11:37:51;;;;;;;11.48;3.70;;;12.50;99.90;;;;;;4899281;29;20068;-80
2023/02/06 11:40:18;;;;;;;8.70;3.33;;;12.70;99.80;;;;;;4915148;29;20076;-80
2023/02/06 11:42:45;;;;;;;9.85;2.85;;;12.90;98.80;;;;;;4914139;29;20526;-82
2023/02/06 11:45:11;;;;;;;12.73;3.65;;;13.00;95.50;;;;;;4899115;29;20048;-79
2023/02/06 11:47:39;;;;;;;8.10;2.78;;;13.30;94.50;;;;;;4898574;29;20104;-81
2023/02/06 11:50:06;;;;;;;11.65;3.03;;;13.50;91.70;;;;;;4914393;29;20044;-80
2023/02/06 11:52:33;;;;;;;6.95;2.55;;;13.60;93.60;;;;;;4914492;29;20115;-80
2023/02/06 11:55:01;;;;;;;5.75;2.60;;;13.80;91.50;;;;;;4914854;29;20111;-81
2023/02/06 11:57:29;;;;;;;10.02;4.05;;;13.80;92.50;;;;;;4899386;29;20044;-81
2023/02/06 11:59:56;;;;;;;8.73;3.63;;;13.80;86.60;;;;;;4903535;29;20041;-80
2023/02/06 12:02:22;;;;;;;9.85;3.30;;;13.90;90.70;;;;;;4913878;29;20603;-81
2023/02/06 12:04:49;;;;;;;7.65;2.83;;;13.90;90.20;;;;;;4901909;29;20044;-80
2023/02/06 12:07:16;;;;;;;8.38;3.25;;;13.80;86.30;;;;;;4908612;29;20502;-80
2023/02/06 12:09:43;;;;;;;13.63;3.97;;;13.30;88.50;;;;;;4918498;29;20045;-80
2023/02/06 12:12:10;;;;;;;10.82;2.40;;;12.40;88.40;;;;;;4899025;29;20041;-79
2023/02/06 12:14:36;;;;;;;7.28;3.13;;;11.70;91.00;;;;;;4914807;29;20190;-80
2023/02/06 12:17:05;;;;;;;14.02;3.63;;;11.10;92.00;;;;;;4912700;29;20130;-78
2023/02/06 12:19:32;;;;;;;11.95;3.53;;;10.70;93.30;;;;;;4891105;29;20139;-78
2023/02/06 12:22:01;;;;;;;8.27;2.83;;;10.30;94.80;;;;;;4899550;29;20055;-77
2023/02/06 12:24:28;;;;;;;7.35;2.30;;;10.00;95.00;;;;;;4898794;29;20056;-77
2023/02/06 12:26:55;;;;;;;6.95;3.05;;;9.80;95.30;;;;;;4899495;29;20096;-77
2023/02/06 12:29:21;;;;;;;11.10;2.60;;;9.50;96.70;;;;;;4898580;29;20059;-77
2023/02/06 12:31:52;;;;;;;9.02;3.38;;;9.40;95.60;;;;;;4899468;29;20078;-77
2023/02/06 12:34:19;;;;;;;8.88;3.50;;;9.30;99.80;;;;;;4891684;29;20076;-77
2023/02/06 12:36:52;;;;;;;14.75;3.60;;;9.30;99.20;;;;;;4899081;29;20083;-77
2023/02/06 12:39:19;;;;;;;10.63;2.90;;;9.30;99.40;;;;;;4899603;29;20057;-77
2023/02/06 12:41:45;;;;;;;8.77;3.17;;;9.30;99.10;;;;;;4913291;29;20111;-76
2023/02/06 12:44:12;;;;;;;10.35;3.20;;;9.30;98.20;;;;;;4902522;29;20052;-77
2023/02/06 12:46:40;;;;;;;9.75;3.85;;;9.20;99.90;;;;;;4881015;29;20061;-77